sensor_id;sensor_type;location;lat;lon;timestamp;pressure;altitude;pressure_sealevel;temperature;humidity
58690;BME280;44470;53.206;-6.106;2022-10-17T00:00:42;99807.41;;;19.88;57.61
58690;BME280;44470;53.206;-6.106;2022-10-17T00:03:08;99789.63;;;19.89;57.61
58690;BME280;44470;53.206;-6.106;2022-10-17T00:05:33;99795.00;;;19.87;57.93
58690;BME280;44470;53.206;-6.106;2022-10-17T00:08:02;99787.78;;;19.89;57.70
58690;BME280;44470;53.206;-6.106;2022-10-17T00:10:28;99790.47;;;19.91;57.47
58690;BME280;44470;53.206;-6.106;2022-10-17T00:12:53;99781.53;;;19.92;57.53
58690;BME280;44470;53.206;-6.106;2022-10-17T00:15:20;99782.56;;;19.86;57.25
58690;BME280;44470;53.206;-6.106;2022-10-17T00:17:46;99778.03;;;19.90;57.69
58690;BME280;44470;53.206;-6.106;2022-10-17T00:20:12;99795.03;;;19.86;57.33
58690;BME280;44470;53.206;-6.106;2022-10-17T00:22:38;99779.19;;;19.81;57.80
58690;BME280;44470;53.206;-6.106;2022-10-17T00:25:04;99796.03;;;19.83;57.59
58690;BME280;44470;53.206;-6.106;2022-10-17T00:27:33;99799.44;;;19.87;57.66
58690;BME280;44470;53.206;-6.106;2022-10-17T00:29:59;99789.75;;;19.84;57.46
58690;BME280;44470;53.206;-6.106;2022-10-17T00:32:25;99797.66;;;19.87;57.32
58690;BME280;44470;53.206;-6.106;2022-10-17T00:34:50;99807.41;;;19.88;57.23
58690;BME280;44470;53.206;-6.106;2022-10-17T00:37:16;99791.72;;;19.79;57.32
58690;BME280;44470;53.206;-6.106;2022-10-17T00:39:42;99809.28;;;19.86;57.21
58690;BME280;44470;53.206;-6.106;2022-10-17T00:42:12;99812.75;;;19.88;57.24
58690;BME280;44470;53.206;-6.106;2022-10-17T00:47:10;99813.00;;;19.81;57.66
58690;BME280;44470;53.206;-6.106;2022-10-17T00:49:39;99827.84;;;19.89;57.64
58690;BME280;44470;53.206;-6.106;2022-10-17T00:52:07;99829.63;;;19.91;57.26
58690;BME280;44470;53.206;-6.106;2022-10-17T00:54:37;99824.28;;;19.91;57.55
58690;BME280;44470;53.206;-6.106;2022-10-17T00:57:04;99827.03;;;19.87;57.37
58690;BME280;44470;53.206;-6.106;2022-10-17T00:59:32;99832.47;;;19.84;57.56
58690;BME280;44470;53.206;-6.106;2022-10-17T01:04:29;99836.94;;;19.84;57.44
58690;BME280;44470;53.206;-6.106;2022-10-17T01:06:54;99827.25;;;19.81;57.44
58690;BME280;44470;53.206;-6.106;2022-10-17T01:09:20;99841.25;;;19.88;57.41
58690;BME280;44470;53.206;-6.106;2022-10-17T01:22:46;99852.84;;;19.87;56.97
58690;BME280;44470;53.206;-6.106;2022-10-17T01:25:41;99859.72;;;19.96;56.92
58690;BME280;44470;53.206;-6.106;2022-10-17T01:31:13;99873.25;;;19.91;57.32
58690;BME280;44470;53.206;-6.106;2022-10-17T01:36:36;99860.09;;;19.83;57.59
58690;BME280;44470;53.206;-6.106;2022-10-17T01:39:41;99855.59;;;19.85;57.50
58690;BME280;44470;53.206;-6.106;2022-10-17T01:44:54;99842.59;;;19.74;57.20
58690;BME280;44470;53.206;-6.106;2022-10-17T01:47:27;99850.34;;;19.82;56.88
58690;BME280;44470;53.206;-6.106;2022-10-17T01:49:58;99860.03;;;19.85;56.98
58690;BME280;44470;53.206;-6.106;2022-10-17T01:52:34;99846.06;;;19.77;56.81
58690;BME280;44470;53.206;-6.106;2022-10-17T01:55:23;99860.53;;;19.71;57.22
58690;BME280;44470;53.206;-6.106;2022-10-17T01:57:54;99866.28;;;19.85;57.10
58690;BME280;44470;53.206;-6.106;2022-10-17T02:00:23;99860.94;;;19.85;57.12
58690;BME280;44470;53.206;-6.106;2022-10-17T02:03:00;99864.63;;;19.81;57.13
58690;BME280;44470;53.206;-6.106;2022-10-17T02:05:31;99856.44;;;19.86;56.81
58690;BME280;44470;53.206;-6.106;2022-10-17T02:07:58;99876.06;;;19.85;56.97
58690;BME280;44470;53.206;-6.106;2022-10-17T02:10:41;99846.59;;;19.88;56.47
58690;BME280;44470;53.206;-6.106;2022-10-17T02:18:37;99858.09;;;19.92;56.58
58690;BME280;44470;53.206;-6.106;2022-10-17T02:21:09;99856.63;;;19.81;57.01
58690;BME280;44470;53.206;-6.106;2022-10-17T02:24:16;99846.75;;;19.83;56.77
58690;BME280;44470;53.206;-6.106;2022-10-17T02:26:40;99843.28;;;19.81;56.89
58690;BME280;44470;53.206;-6.106;2022-10-17T02:29:18;99845.00;;;19.82;56.41
58690;BME280;44470;53.206;-6.106;2022-10-17T02:32:03;99846.75;;;19.83;56.61
58690;BME280;44470;53.206;-6.106;2022-10-17T02:34:34;99838.69;;;19.85;56.68
58690;BME280;44470;53.206;-6.106;2022-10-17T02:37:04;99834.47;;;19.78;56.46
58690;BME280;44470;53.206;-6.106;2022-10-17T02:39:32;99832.63;;;19.80;56.90
58690;BME280;44470;53.206;-6.106;2022-10-17T02:42:02;99839.56;;;19.85;56.42
58690;BME280;44470;53.206;-6.106;2022-10-17T02:44:30;99835.97;;;19.86;56.41
58690;BME280;44470;53.206;-6.106;2022-10-17T02:47:18;99846.78;;;19.82;56.72
58690;BME280;44470;53.206;-6.106;2022-10-17T02:49:49;99848.31;;;19.91;56.20
58690;BME280;44470;53.206;-6.106;2022-10-17T02:55:10;99850.88;;;19.94;56.17
58690;BME280;44470;53.206;-6.106;2022-10-17T02:57:41;99860.81;;;19.90;56.07
58690;BME280;44470;53.206;-6.106;2022-10-17T03:00:09;99873.25;;;19.89;56.30
58690;BME280;44470;53.206;-6.106;2022-10-17T03:02:49;99868.97;;;19.84;56.20
58690;BME280;44470;53.206;-6.106;2022-10-17T03:05:21;99883.94;;;19.89;56.51
58690;BME280;44470;53.206;-6.106;2022-10-17T03:07:47;99892.06;;;19.86;56.10
58690;BME280;44470;53.206;-6.106;2022-10-17T03:10:13;99878.59;;;19.89;56.25
58690;BME280;44470;53.206;-6.106;2022-10-17T03:12:38;99868.03;;;19.86;56.39
58690;BME280;44470;53.206;-6.106;2022-10-17T03:15:04;99888.44;;;19.87;56.25
58690;BME280;44470;53.206;-6.106;2022-10-17T03:17:30;99895.53;;;19.90;56.07
58690;BME280;44470;53.206;-6.106;2022-10-17T03:19:56;99893.78;;;19.87;56.39
58690;BME280;44470;53.206;-6.106;2022-10-17T03:22:21;99883.25;;;19.83;56.00
58690;BME280;44470;53.206;-6.106;2022-10-17T03:24:47;99884.97;;;19.85;56.23
58690;BME280;44470;53.206;-6.106;2022-10-17T03:27:13;99871.81;;;19.79;56.34
58690;BME280;44470;53.206;-6.106;2022-10-17T03:29:39;99868.03;;;19.86;56.18
58690;BME280;44470;53.206;-6.106;2022-10-17T03:32:06;99860.22;;;19.80;56.14
58690;BME280;44470;53.206;-6.106;2022-10-17T03:34:33;99874.31;;;19.84;56.17
58690;BME280;44470;53.206;-6.106;2022-10-17T03:36:58;99866.69;;;19.73;56.26
58690;BME280;44470;53.206;-6.106;2022-10-17T03:39:26;99868.84;;;19.88;56.07
58690;BME280;44470;53.206;-6.106;2022-10-17T03:41:52;99882.28;;;19.85;56.34
58690;BME280;44470;53.206;-6.106;2022-10-17T03:44:18;99871.09;;;19.74;55.97
58690;BME280;44470;53.206;-6.106;2022-10-17T03:46:44;99878.69;;;19.86;55.99
58690;BME280;44470;53.206;-6.106;2022-10-17T03:49:10;99890.44;;;19.81;55.85
58690;BME280;44470;53.206;-6.106;2022-10-17T03:51:35;99893.19;;;19.79;55.98
58690;BME280;44470;53.206;-6.106;2022-10-17T03:54:06;99883.22;;;19.84;55.80
58690;BME280;44470;53.206;-6.106;2022-10-17T03:56:31;99924.22;;;19.82;56.08
58690;BME280;44470;53.206;-6.106;2022-10-17T03:59:01;99902.94;;;19.80;56.12
58690;BME280;44470;53.206;-6.106;2022-10-17T04:01:28;99930.47;;;19.82;55.92
58690;BME280;44470;53.206;-6.106;2022-10-17T04:03:55;99930.34;;;19.85;55.74
58690;BME280;44470;53.206;-6.106;2022-10-17T04:06:21;99941.25;;;19.79;55.99
58690;BME280;44470;53.206;-6.106;2022-10-17T04:08:47;99947.34;;;19.83;55.74
58690;BME280;44470;53.206;-6.106;2022-10-17T04:11:20;99953.66;;;19.80;55.70
58690;BME280;44470;53.206;-6.106;2022-10-17T04:13:50;99962.50;;;19.82;55.97
58690;BME280;44470;53.206;-6.106;2022-10-17T04:16:16;99976.03;;;19.76;55.71
58690;BME280;44470;53.206;-6.106;2022-10-17T04:19:11;99996.28;;;19.83;55.89
58690;BME280;44470;53.206;-6.106;2022-10-17T04:21:39;99999.78;;;19.85;56.02
58690;BME280;44470;53.206;-6.106;2022-10-17T04:24:09;99976.88;;;19.78;55.77
58690;BME280;44470;53.206;-6.106;2022-10-17T04:26:58;99981.38;;;19.76;55.77
58690;BME280;44470;53.206;-6.106;2022-10-17T04:29:27;99997.31;;;19.79;55.77
58690;BME280;44470;53.206;-6.106;2022-10-17T04:32:02;99999.88;;;19.82;55.75
58690;BME280;44470;53.206;-6.106;2022-10-17T04:34:48;100025.78;;;19.79;55.75
58690;BME280;44470;53.206;-6.106;2022-10-17T04:37:19;100007.81;;;19.84;55.81
58690;BME280;44470;53.206;-6.106;2022-10-17T04:39:47;100017.75;;;19.80;55.93
58690;BME280;44470;53.206;-6.106;2022-10-17T04:42:13;100017.66;;;19.83;55.68
58690;BME280;44470;53.206;-6.106;2022-10-17T04:44:39;100025.59;;;19.85;55.35
58690;BME280;44470;53.206;-6.106;2022-10-17T04:47:06;100015.66;;;19.92;55.42
58690;BME280;44470;53.206;-6.106;2022-10-17T04:49:32;100005.13;;;19.85;55.23
58690;BME280;44470;53.206;-6.106;2022-10-17T04:52:05;100017.75;;;19.80;55.39
58690;BME280;44470;53.206;-6.106;2022-10-17T04:54:48;100009.09;;;19.72;55.51
58690;BME280;44470;53.206;-6.106;2022-10-17T04:57:13;100032.84;;;19.81;55.55
58690;BME280;44470;53.206;-6.106;2022-10-17T04:59:42;100038.03;;;19.86;55.59
58690;BME280;44470;53.206;-6.106;2022-10-17T05:02:16;100044.44;;;19.80;55.61
58690;BME280;44470;53.206;-6.106;2022-10-17T05:04:56;100050.66;;;19.81;55.34
58690;BME280;44470;53.206;-6.106;2022-10-17T05:07:22;100048.25;;;19.71;55.77
58690;BME280;44470;53.206;-6.106;2022-10-17T05:10:09;100057.72;;;19.83;55.71
58690;BME280;44470;53.206;-6.106;2022-10-17T05:12:35;100061.31;;;19.82;55.36
58690;BME280;44470;53.206;-6.106;2022-10-17T05:15:00;100070.13;;;19.84;55.49
58690;BME280;44470;53.206;-6.106;2022-10-17T05:17:27;100073.84;;;19.79;55.57
58690;BME280;44470;53.206;-6.106;2022-10-17T05:19:52;100080.94;;;19.80;55.11
58690;BME280;44470;53.206;-6.106;2022-10-17T05:22:18;100086.19;;;19.83;55.24
58690;BME280;44470;53.206;-6.106;2022-10-17T05:24:44;100062.97;;;19.85;55.29
58690;BME280;44470;53.206;-6.106;2022-10-17T05:27:09;100079.16;;;19.80;55.44
58690;BME280;44470;53.206;-6.106;2022-10-17T05:29:35;100088.28;;;19.73;55.05
58690;BME280;44470;53.206;-6.106;2022-10-17T05:32:08;100101.53;;;19.76;55.35
58690;BME280;44470;53.206;-6.106;2022-10-17T05:34:34;100089.97;;;19.75;55.30
58690;BME280;44470;53.206;-6.106;2022-10-17T05:36:59;100110.47;;;19.75;55.30
58690;BME280;44470;53.206;-6.106;2022-10-17T05:39:25;100100.56;;;19.79;55.60
58690;BME280;44470;53.206;-6.106;2022-10-17T05:41:51;100112.22;;;19.76;55.30
58690;BME280;44470;53.206;-6.106;2022-10-17T05:44:17;100114.00;;;19.75;55.48
58690;BME280;44470;53.206;-6.106;2022-10-17T05:46:47;100125.69;;;19.71;55.32
58690;BME280;44470;53.206;-6.106;2022-10-17T05:49:14;100132.78;;;19.72;55.33
58690;BME280;44470;53.206;-6.106;2022-10-17T05:51:39;100150.50;;;19.75;55.45
58690;BME280;44470;53.206;-6.106;2022-10-17T05:54:05;100160.28;;;19.76;55.26
58690;BME280;44470;53.206;-6.106;2022-10-17T05:56:32;100178.78;;;19.82;55.37
58690;BME280;44470;53.206;-6.106;2022-10-17T05:58:58;100171.63;;;19.83;55.24
58690;BME280;44470;53.206;-6.106;2022-10-17T06:01:46;100185.16;;;19.77;55.27
58690;BME280;44470;53.206;-6.106;2022-10-17T06:04:12;100189.50;;;19.81;54.92
58690;BME280;44470;53.206;-6.106;2022-10-17T06:06:39;100194.84;;;19.81;55.36
58690;BME280;44470;53.206;-6.106;2022-10-17T06:09:05;100195.72;;;19.81;54.75
58690;BME280;44470;53.206;-6.106;2022-10-17T06:11:35;100213.75;;;19.73;55.15
58690;BME280;44470;53.206;-6.106;2022-10-17T06:14:01;100227.94;;;19.75;55.15
58690;BME280;44470;53.206;-6.106;2022-10-17T06:16:28;100226.03;;;19.80;54.87
58690;BME280;44470;53.206;-6.106;2022-10-17T06:18:53;100229.69;;;19.76;55.23
58690;BME280;44470;53.206;-6.106;2022-10-17T06:21:23;100231.63;;;19.71;55.12
58690;BME280;44470;53.206;-6.106;2022-10-17T06:23:51;100227.94;;;19.75;55.21
58690;BME280;44470;53.206;-6.106;2022-10-17T06:26:37;100245.75;;;19.74;55.47
58690;BME280;44470;53.206;-6.106;2022-10-17T06:29:17;100260.84;;;19.75;54.97
58690;BME280;44470;53.206;-6.106;2022-10-17T06:31:49;100259.91;;;19.78;55.35
58690;BME280;44470;53.206;-6.106;2022-10-17T06:34:15;100274.19;;;19.77;54.85
58690;BME280;44470;53.206;-6.106;2022-10-17T06:36:40;100260.84;;;19.75;54.97
58690;BME280;44470;53.206;-6.106;2022-10-17T06:39:07;100261.91;;;19.70;54.66
58690;BME280;44470;53.206;-6.106;2022-10-17T06:41:39;100257.44;;;19.70;54.94
58690;BME280;44470;53.206;-6.106;2022-10-17T06:44:07;100263.53;;;19.75;55.21
58690;BME280;44470;53.206;-6.106;2022-10-17T06:46:48;100288.31;;;19.81;54.87
58690;BME280;44470;53.206;-6.106;2022-10-17T06:49:15;100285.69;;;19.79;55.21
58690;BME280;44470;53.206;-6.106;2022-10-17T06:52:02;100296.22;;;19.85;55.08
58690;BME280;44470;53.206;-6.106;2022-10-17T06:54:39;100301.88;;;19.73;54.73
58690;BME280;44470;53.206;-6.106;2022-10-17T06:57:37;100313.31;;;19.78;57.40
58690;BME280;44470;53.206;-6.106;2022-10-17T07:00:21;100327.06;;;19.63;56.81
58690;BME280;44470;53.206;-6.106;2022-10-17T07:02:51;100319.84;;;19.66;56.46
58690;BME280;44470;53.206;-6.106;2022-10-17T07:05:17;100334.84;;;19.72;55.71
58690;BME280;44470;53.206;-6.106;2022-10-17T07:07:44;100331.00;;;19.82;55.11
58690;BME280;44470;53.206;-6.106;2022-10-17T07:10:10;100340.84;;;19.80;54.80
58690;BME280;44470;53.206;-6.106;2022-10-17T07:12:35;100347.03;;;19.82;54.52
58690;BME280;44470;53.206;-6.106;2022-10-17T07:15:02;100358.56;;;19.83;54.76
58690;BME280;44470;53.206;-6.106;2022-10-17T07:17:30;100336.50;;;19.76;54.84
58690;BME280;44470;53.206;-6.106;2022-10-17T07:19:56;100354.19;;;19.80;54.78
58690;BME280;44470;53.206;-6.106;2022-10-17T07:22:22;100392.50;;;19.79;54.80
58690;BME280;44470;53.206;-6.106;2022-10-17T07:24:50;100370.16;;;19.83;54.31
58690;BME280;44470;53.206;-6.106;2022-10-17T07:27:22;100370.22;;;19.80;54.50
58690;BME280;44470;53.206;-6.106;2022-10-17T07:29:48;100385.41;;;19.78;54.61
58690;BME280;44470;53.206;-6.106;2022-10-17T07:32:22;100382.81;;;19.75;54.75
58690;BME280;44470;53.206;-6.106;2022-10-17T07:34:48;100390.91;;;19.72;54.85
58690;BME280;44470;53.206;-6.106;2022-10-17T07:37:13;100393.41;;;19.78;54.40
58690;BME280;44470;53.206;-6.106;2022-10-17T07:39:44;100405.13;;;19.72;54.70
58690;BME280;44470;53.206;-6.106;2022-10-17T07:42:10;100420.97;;;19.79;54.38
58690;BME280;44470;53.206;-6.106;2022-10-17T07:44:36;100407.84;;;19.71;54.42
58690;BME280;44470;53.206;-6.106;2022-10-17T07:47:02;100417.47;;;19.77;54.30
58690;BME280;44470;53.206;-6.106;2022-10-17T07:49:27;100409.38;;;19.81;54.19
58690;BME280;44470;53.206;-6.106;2022-10-17T07:51:53;100420.13;;;19.78;54.09
58690;BME280;44470;53.206;-6.106;2022-10-17T07:54:19;100426.47;;;19.72;54.22
58690;BME280;44470;53.206;-6.106;2022-10-17T07:56:44;100418.53;;;19.71;54.13
58690;BME280;44470;53.206;-6.106;2022-10-17T07:59:18;100437.91;;;19.79;53.93
58690;BME280;44470;53.206;-6.106;2022-10-17T08:01:43;100440.75;;;19.71;53.85
58690;BME280;44470;53.206;-6.106;2022-10-17T08:04:09;100425.84;;;19.61;54.17
58690;BME280;44470;53.206;-6.106;2022-10-17T08:06:34;100439.06;;;19.67;54.09
58690;BME280;44470;53.206;-6.106;2022-10-17T08:09:00;100449.66;;;19.72;54.21
58690;BME280;44470;53.206;-6.106;2022-10-17T08:11:26;100446.97;;;19.72;54.04
58690;BME280;44470;53.206;-6.106;2022-10-17T08:13:51;100433.66;;;19.70;53.86
58690;BME280;44470;53.206;-6.106;2022-10-17T08:16:17;100438.19;;;19.67;53.75
58690;BME280;44470;53.206;-6.106;2022-10-17T08:18:42;100443.53;;;19.67;54.11
58690;BME280;44470;53.206;-6.106;2022-10-17T08:21:09;100462.19;;;19.68;53.92
58690;BME280;44470;53.206;-6.106;2022-10-17T08:23:35;100462.16;;;19.70;54.06
58690;BME280;44470;53.206;-6.106;2022-10-17T08:26:03;100464.75;;;19.73;53.77
58690;BME280;44470;53.206;-6.106;2022-10-17T08:28:29;100483.53;;;19.68;54.01
58690;BME280;44470;53.206;-6.106;2022-10-17T08:31:04;100468.56;;;19.63;54.00
58690;BME280;44470;53.206;-6.106;2022-10-17T08:33:30;100513.81;;;19.67;53.87
58690;BME280;44470;53.206;-6.106;2022-10-17T08:35:58;100507.69;;;19.64;54.24
58690;BME280;44470;53.206;-6.106;2022-10-17T08:38:24;100489.00;;;19.64;53.97
58690;BME280;44470;53.206;-6.106;2022-10-17T08:40:49;100513.94;;;19.63;53.96
58690;BME280;44470;53.206;-6.106;2022-10-17T08:43:30;100514.81;;;19.61;54.08
58690;BME280;44470;53.206;-6.106;2022-10-17T08:46:00;100525.38;;;19.68;53.78
58690;BME280;44470;53.206;-6.106;2022-10-17T08:48:30;100507.78;;;19.57;54.20
58690;BME280;44470;53.206;-6.106;2022-10-17T08:51:09;100532.63;;;19.63;54.05
58690;BME280;44470;53.206;-6.106;2022-10-17T08:56:24;100538.00;;;19.59;54.28
58690;BME280;44470;53.206;-6.106;2022-10-17T08:58:50;100531.88;;;19.56;54.12
58690;BME280;44470;53.206;-6.106;2022-10-17T09:01:33;100568.13;;;19.66;53.94
58690;BME280;44470;53.206;-6.106;2022-10-17T09:09:44;100567.97;;;19.74;53.63
58690;BME280;44470;53.206;-6.106;2022-10-17T09:18:16;100605.59;;;19.61;53.91
58690;BME280;44470;53.206;-6.106;2022-10-17T09:21:11;100604.72;;;19.61;53.77
58690;BME280;44470;53.206;-6.106;2022-10-17T09:24:04;100615.34;;;19.64;53.63
58690;BME280;44470;53.206;-6.106;2022-10-17T09:26:31;100623.50;;;19.56;53.78
58690;BME280;44470;53.206;-6.106;2022-10-17T09:28:58;100618.91;;;19.63;53.49
58690;BME280;44470;53.206;-6.106;2022-10-17T09:31:28;100633.97;;;19.67;53.80
58690;BME280;44470;53.206;-6.106;2022-10-17T09:33:56;100639.31;;;19.67;53.70
58690;BME280;44470;53.206;-6.106;2022-10-17T09:36:32;100638.47;;;19.65;53.67
58690;BME280;44470;53.206;-6.106;2022-10-17T09:39:14;100642.94;;;19.65;53.40
58690;BME280;44470;53.206;-6.106;2022-10-17T09:41:50;100642.69;;;19.75;53.22
58690;BME280;44470;53.206;-6.106;2022-10-17T09:44:28;100644.72;;;19.64;53.66
58690;BME280;44470;53.206;-6.106;2022-10-17T09:49:46;100664.28;;;19.65;53.85
58690;BME280;44470;53.206;-6.106;2022-10-17T09:52:15;100635.94;;;19.57;53.45
58690;BME280;44470;53.206;-6.106;2022-10-17T09:54:45;100667.88;;;19.62;53.55
58690;BME280;44470;53.206;-6.106;2022-10-17T09:57:12;100679.53;;;19.58;53.49
58690;BME280;44470;53.206;-6.106;2022-10-17T09:59:59;100692.81;;;19.63;53.58
58690;BME280;44470;53.206;-6.106;2022-10-17T10:02:27;100702.63;;;19.60;53.75
58690;BME280;44470;53.206;-6.106;2022-10-17T10:05:02;100699.06;;;19.60;53.73
58690;BME280;44470;53.206;-6.106;2022-10-17T10:07:31;100713.41;;;19.56;53.77
58690;BME280;44470;53.206;-6.106;2022-10-17T10:09:58;100721.28;;;19.60;53.55
58690;BME280;44470;53.206;-6.106;2022-10-17T10:12:36;100745.31;;;19.62;53.89
58690;BME280;44470;53.206;-6.106;2022-10-17T10:15:29;100727.47;;;19.64;53.69
58690;BME280;44470;53.206;-6.106;2022-10-17T10:17:55;100728.41;;;19.61;53.34
58690;BME280;44470;53.206;-6.106;2022-10-17T10:20:35;100738.22;;;19.61;53.45
58690;BME280;44470;53.206;-6.106;2022-10-17T10:23:19;100767.56;;;19.63;53.89
58690;BME280;44470;53.206;-6.106;2022-10-17T10:28:54;100774.88;;;19.51;53.82
58690;BME280;44470;53.206;-6.106;2022-10-17T10:31:29;100795.19;;;19.60;53.81
58690;BME280;44470;53.206;-6.106;2022-10-17T10:33:55;100786.25;;;19.63;53.84
58690;BME280;44470;53.206;-6.106;2022-10-17T10:36:23;100808.53;;;19.60;53.80
58690;BME280;44470;53.206;-6.106;2022-10-17T10:38:54;100807.75;;;19.53;53.88
58690;BME280;44470;53.206;-6.106;2022-10-17T10:41:20;100809.63;;;19.48;53.93
58690;BME280;44470;53.206;-6.106;2022-10-17T10:43:48;100821.03;;;19.56;53.91
58690;BME280;44470;53.206;-6.106;2022-10-17T10:46:20;100812.06;;;19.60;53.73
58690;BME280;44470;53.206;-6.106;2022-10-17T10:48:53;100821.03;;;19.56;54.12
58690;BME280;44470;53.206;-6.106;2022-10-17T10:51:26;100845.97;;;19.55;54.03
58690;BME280;44470;53.206;-6.106;2022-10-17T10:54:15;100842.44;;;19.53;53.85
58690;BME280;44470;53.206;-6.106;2022-10-17T10:56:46;100853.25;;;19.47;53.88
58690;BME280;44470;53.206;-6.106;2022-10-17T10:59:34;100890.41;;;19.59;53.88
58690;BME280;44470;53.206;-6.106;2022-10-17T11:02:26;100885.00;;;19.64;54.03
58690;BME280;44470;53.206;-6.106;2022-10-17T11:07:45;100893.97;;;19.58;53.73
58690;BME280;44470;53.206;-6.106;2022-10-17T11:15:58;100898.47;;;19.58;53.82
58690;BME280;44470;53.206;-6.106;2022-10-17T11:18:34;100917.09;;;19.59;53.71
58690;BME280;44470;53.206;-6.106;2022-10-17T11:23:58;100917.97;;;19.61;53.72
58690;BME280;44470;53.206;-6.106;2022-10-17T11:26:28;100945.56;;;19.60;54.08
58690;BME280;44470;53.206;-6.106;2022-10-17T11:28:58;100929.63;;;19.56;53.79
58690;BME280;44470;53.206;-6.106;2022-10-17T11:31:35;100934.03;;;19.60;54.16
58690;BME280;44470;53.206;-6.106;2022-10-17T11:34:09;100965.22;;;19.56;54.11
58690;BME280;44470;53.206;-6.106;2022-10-17T11:36:39;100950.13;;;19.54;54.06
58690;BME280;44470;53.206;-6.106;2022-10-17T11:39:14;100974.13;;;19.57;53.93
58690;BME280;44470;53.206;-6.106;2022-10-17T11:41:53;100968.75;;;19.58;53.92
58690;BME280;44470;53.206;-6.106;2022-10-17T11:44:35;100975.88;;;19.56;54.15
58690;BME280;44470;53.206;-6.106;2022-10-17T11:47:10;100984.75;;;19.58;54.15
58690;BME280;44470;53.206;-6.106;2022-10-17T11:49:40;100960.78;;;19.55;54.04
58690;BME280;44470;53.206;-6.106;2022-10-17T11:52:31;100993.72;;;19.54;54.18
58690;BME280;44470;53.206;-6.106;2022-10-17T11:55:18;101000.78;;;19.60;54.07
58690;BME280;44470;53.206;-6.106;2022-10-17T12:03:41;101015.06;;;19.56;54.31
58690;BME280;44470;53.206;-6.106;2022-10-17T12:11:49;101005.34;;;19.52;54.24
58690;BME280;44470;53.206;-6.106;2022-10-17T12:17:00;101025.75;;;19.54;54.41
58690;BME280;44470;53.206;-6.106;2022-10-17T12:19:27;101024.88;;;19.54;54.42
58690;BME280;44470;53.206;-6.106;2022-10-17T12:32:51;101054.38;;;19.44;54.95
58690;BME280;44470;53.206;-6.106;2022-10-17T12:35:20;101033.03;;;19.43;54.56
58690;BME280;44470;53.206;-6.106;2022-10-17T12:43:00;101060.53;;;19.50;54.62
58690;BME280;44470;53.206;-6.106;2022-10-17T12:45:45;101064.91;;;19.55;54.90
58690;BME280;44470;53.206;-6.106;2022-10-17T12:53:59;101101.38;;;19.58;54.49
58690;BME280;44470;53.206;-6.106;2022-10-17T12:56:49;101107.56;;;19.58;54.59
58690;BME280;44470;53.206;-6.106;2022-10-17T12:59:24;101106.75;;;19.55;54.93
58690;BME280;44470;53.206;-6.106;2022-10-17T13:01:53;101113.94;;;19.50;54.76
58690;BME280;44470;53.206;-6.106;2022-10-17T13:04:20;101115.69;;;19.51;54.94
58690;BME280;44470;53.206;-6.106;2022-10-17T13:06:49;101134.31;;;19.57;54.74
58690;BME280;44470;53.206;-6.106;2022-10-17T13:11:43;101121.91;;;19.51;54.87
58690;BME280;44470;53.206;-6.106;2022-10-17T13:14:11;101136.03;;;19.59;54.87
58690;BME280;44470;53.206;-6.106;2022-10-17T13:16:42;101145.00;;;19.57;54.97
58690;BME280;44470;53.206;-6.106;2022-10-17T13:19:20;101138.75;;;19.58;54.96
58690;BME280;44470;53.206;-6.106;2022-10-17T13:26:54;101156.47;;;19.65;54.75
58690;BME280;44470;53.206;-6.106;2022-10-17T13:29:20;101169.84;;;19.64;54.62
58690;BME280;44470;53.206;-6.106;2022-10-17T13:32:01;101160.84;;;19.71;54.28
58690;BME280;44470;53.206;-6.106;2022-10-17T13:34:29;101183.09;;;19.71;54.30
58690;BME280;44470;53.206;-6.106;2022-10-17T13:37:02;101180.38;;;19.76;54.48
58690;BME280;44470;53.206;-6.106;2022-10-17T13:39:37;101173.47;;;19.56;55.20
58690;BME280;44470;53.206;-6.106;2022-10-17T13:42:04;101180.53;;;19.64;54.84
58690;BME280;44470;53.206;-6.106;2022-10-17T13:44:34;101166.28;;;19.65;55.00
58690;BME280;44470;53.206;-6.106;2022-10-17T13:47:00;101187.56;;;19.69;54.95
58690;BME280;44470;53.206;-6.106;2022-10-17T13:49:32;101200.97;;;19.63;55.00
58690;BME280;44470;53.206;-6.106;2022-10-17T13:52:00;101202.78;;;19.63;54.96
58690;BME280;44470;53.206;-6.106;2022-10-17T13:54:44;101194.78;;;19.59;55.24
58690;BME280;44470;53.206;-6.106;2022-10-17T13:59:43;101211.69;;;19.58;55.34
58690;BME280;44470;53.206;-6.106;2022-10-17T14:02:44;101232.13;;;19.66;55.01
58690;BME280;44470;53.206;-6.106;2022-10-17T14:05:12;101226.78;;;19.66;55.08
58690;BME280;44470;53.206;-6.106;2022-10-17T14:07:49;101252.63;;;19.64;55.35
58690;BME280;44470;53.206;-6.106;2022-10-17T14:10:21;101270.38;;;19.68;55.39
58690;BME280;44470;53.206;-6.106;2022-10-17T14:12:48;101284.63;;;19.65;55.61
58690;BME280;44470;53.206;-6.106;2022-10-17T14:15:15;101282.88;;;19.66;55.37
58690;BME280;44470;53.206;-6.106;2022-10-17T14:17:42;101289.09;;;19.65;55.39
58690;BME280;44470;53.206;-6.106;2022-10-17T14:20:19;101306.88;;;19.69;55.36
58690;BME280;44470;53.206;-6.106;2022-10-17T14:22:46;101314.84;;;19.70;55.56
58690;BME280;44470;53.206;-6.106;2022-10-17T14:25:39;101329.00;;;19.79;55.24
58690;BME280;44470;53.206;-6.106;2022-10-17T14:28:13;101337.09;;;19.71;55.57
58690;BME280;44470;53.206;-6.106;2022-10-17T14:30:42;101330.91;;;19.69;55.55
58690;BME280;44470;53.206;-6.106;2022-10-17T14:33:24;101335.28;;;19.76;55.78
58690;BME280;44470;53.206;-6.106;2022-10-17T14:35:52;101346.88;;;19.75;55.68
58690;BME280;44470;53.206;-6.106;2022-10-17T14:38:19;101367.34;;;19.73;55.45
58690;BME280;44470;53.206;-6.106;2022-10-17T14:41:02;101380.63;;;19.81;55.53
58690;BME280;44470;53.206;-6.106;2022-10-17T14:43:30;101396.69;;;19.79;55.65
58690;BME280;44470;53.206;-6.106;2022-10-17T14:49:39;101395.84;;;19.74;55.62
58690;BME280;44470;53.206;-6.106;2022-10-17T14:52:08;101415.41;;;19.74;55.49
58690;BME280;44470;53.206;-6.106;2022-10-17T14:54:35;101423.41;;;19.76;55.67
58690;BME280;44470;53.206;-6.106;2022-10-17T14:57:08;101431.41;;;19.79;55.69